Accueil
METAR-TAF:

METAR-TAF

Aéroports :

Aéroport de Reykjavik

Reykjavík, Islande

latitude: 64-08N, longitude: 021-54W, altitude: 54 m

Observation

Le bulletin a été fait il y a 11 minutes, à 10:00 UTC
Vent 28 kt de nord avec des rafales jusqu'à 39 kt
Température -2°C
Humidité 74%
Pression 1008 hPa
Visibilité 10 km ou plus
Quelques nuages à une hauteur de 2800 ft
Nuages fragmentés à une hauteur de 13000 ft

METAR: BIRK 231000Z 01028G39KT 9999 FEW028 BKN130 M02/M06 Q1008

Heure: 10:11 (10:11 UTC)

Prévision

Le bulletin a été fait il y a 2 heures et 26 minutes, à 07:45 UTC
Prévision valable du 23 à 09 UTC au 24 à 09 UTC
Vent 22 kt de nord/nord-est avec des rafales jusqu'à 33 kt
Visibilité 10 km ou plus
Nuages épars à une hauteur de 2500 ft
Temporairement
du 23 à 09 UTC au 24 à 06 UTC
Vent 28 kt de nord avec des rafales jusqu'à 44 kt

TAF: BIRK 230745Z 2309/2409 02022G33KT 9999 SCT025 TX00/2322Z TNM02/2309Z TEMPO 2309/2406 01028G44KT

Observations et prévisions météorologiques de plus de 4000 aéroports (messages METAR et TAF).

Les stations disponibles sont représentées par des disques jaunes et rouges sur la carte.

Passer la souris dessus pour voir le nom de la station.

Cliquer dessus pour voir les observations et prévisions météorologiques.

Pour changer de carte: cliquez sur les boutons verts avec une croix noire pour zoomer, sur le bouton vert avec un tiret pour effectuer un zoom arrière, ou sur les flèches vertes pour les cartes adjacentes.


METAR-TAF: